createdAt,value
2018-05-29T00:02:24.471Z,20.96
2018-05-29T00:04:52.784Z,21.04
2018-05-29T00:07:22.064Z,21.12
2018-05-29T00:09:50.355Z,21.16
2018-05-29T00:12:18.687Z,21.12
2018-05-29T00:14:47.757Z,20.97
2018-05-29T00:17:16.031Z,20.98
2018-05-29T00:19:44.315Z,20.93
2018-05-29T00:22:12.618Z,20.79
2018-05-29T00:24:40.905Z,20.82
2018-05-29T00:27:09.174Z,20.79
2018-05-29T00:29:37.478Z,20.78
2018-05-29T00:32:05.756Z,20.81
2018-05-29T00:34:34.024Z,20.72
2018-05-29T00:37:02.329Z,20.73
2018-05-29T00:39:30.597Z,20.64
2018-05-29T00:41:58.899Z,20.68
2018-05-29T00:44:27.205Z,20.60
2018-05-29T00:46:55.536Z,20.52
2018-05-29T00:49:24.579Z,20.50
2018-05-29T00:51:52.918Z,20.53
2018-05-29T00:54:21.223Z,20.53
2018-05-29T00:56:50.324Z,20.54
2018-05-29T00:59:19.381Z,20.56
2018-05-29T01:01:47.674Z,20.60
2018-05-29T01:04:15.948Z,20.63
2018-05-29T01:06:44.212Z,20.66
2018-05-29T01:09:13.270Z,20.53
2018-05-29T01:11:41.554Z,20.45
2018-05-29T01:14:09.873Z,20.47
2018-05-29T01:16:38.185Z,20.43
2018-05-29T01:19:07.245Z,20.46
2018-05-29T01:21:35.556Z,20.46
2018-05-29T01:24:03.867Z,20.42
2018-05-29T01:26:32.910Z,20.44
2018-05-29T01:29:01.216Z,20.48
2018-05-29T01:31:29.498Z,20.48
2018-05-29T01:33:57.771Z,20.49
2018-05-29T01:36:26.075Z,20.51
2018-05-29T01:38:54.393Z,20.47
2018-05-29T01:41:22.705Z,20.43
2018-05-29T01:43:51.834Z,20.43
2018-05-29T01:46:20.532Z,20.46
2018-05-29T01:48:48.822Z,20.41
2018-05-29T01:51:17.104Z,20.38
2018-05-29T01:53:45.698Z,20.34
2018-05-29T01:56:13.979Z,20.29
2018-05-29T01:58:42.276Z,20.23
2018-05-29T02:01:10.608Z,20.23
2018-05-29T02:03:38.943Z,20.21
2018-05-29T02:06:08.018Z,20.20
2018-05-29T02:08:36.289Z,20.10
2018-05-29T02:11:04.563Z,20.06
2018-05-29T02:13:32.856Z,20.06
2018-05-29T02:16:01.132Z,20.02
2018-05-29T02:18:29.442Z,20.05
2018-05-29T02:20:57.733Z,19.96
2018-05-29T02:23:26.027Z,19.91
2018-05-29T02:25:54.375Z,19.92
2018-05-29T02:28:22.714Z,19.91
2018-05-29T02:30:50.990Z,19.92
2018-05-29T02:33:19.329Z,19.88
2018-05-29T02:35:47.624Z,19.87
2018-05-29T02:38:15.917Z,19.87
2018-05-29T02:40:44.186Z,19.90
2018-05-29T02:43:13.259Z,19.80
2018-05-29T02:45:41.540Z,19.84
2018-05-29T02:48:09.818Z,19.85
2018-05-29T02:50:38.102Z,19.81
2018-05-29T02:53:06.386Z,19.77
2018-05-29T02:55:35.444Z,19.75
2018-05-29T02:58:04.487Z,19.72
2018-05-29T03:00:32.798Z,19.72
2018-05-29T03:03:01.071Z,19.71
2018-05-29T03:05:29.364Z,19.70
2018-05-29T03:07:57.680Z,19.68
2018-05-29T03:10:25.937Z,19.62
2018-05-29T03:12:54.224Z,19.62
2018-05-29T03:15:22.503Z,19.61
2018-05-29T03:17:50.810Z,19.59
2018-05-29T03:20:19.114Z,19.58
2018-05-29T03:22:47.376Z,19.56
2018-05-29T03:25:15.644Z,19.57
2018-05-29T03:27:43.926Z,19.58
2018-05-29T03:30:12.215Z,19.48
2018-05-29T03:32:40.500Z,19.48
2018-05-29T03:35:08.791Z,19.50
2018-05-29T03:37:37.068Z,19.50
2018-05-29T03:40:06.710Z,19.57
2018-05-29T03:42:35.034Z,19.55
2018-05-29T03:45:03.311Z,19.55
2018-05-29T03:47:31.640Z,19.55
2018-05-29T03:50:00.703Z,19.54
2018-05-29T03:52:29.031Z,19.57
2018-05-29T03:54:57.313Z,19.57
2018-05-29T03:57:25.591Z,19.51
2018-05-29T03:59:54.047Z,19.49
2018-05-29T04:02:22.361Z,19.55
2018-05-29T04:04:50.646Z,19.55
2018-05-29T04:07:18.946Z,19.52
2018-05-29T04:09:48.412Z,19.54
2018-05-29T04:12:17.015Z,19.62
2018-05-29T04:14:45.293Z,19.69
2018-05-29T04:17:13.572Z,19.71
2018-05-29T04:19:42.628Z,19.76
2018-05-29T04:22:10.915Z,19.82
2018-05-29T04:24:39.202Z,19.81
2018-05-29T04:27:07.495Z,19.85
2018-05-29T04:29:36.523Z,19.88
2018-05-29T04:32:04.843Z,19.88
2018-05-29T04:34:33.110Z,19.88
2018-05-29T04:37:02.148Z,19.94
2018-05-29T04:39:30.428Z,20.00
2018-05-29T04:41:58.695Z,20.08
2018-05-29T04:44:27.743Z,20.12
2018-05-29T04:46:56.017Z,20.21
2018-05-29T04:49:24.293Z,20.23
2018-05-29T04:51:52.687Z,20.25
2018-05-29T04:54:20.970Z,20.35
2018-05-29T04:56:49.259Z,20.40
2018-05-29T04:59:18.270Z,20.51
2018-05-29T05:01:46.677Z,20.54
2018-05-29T05:04:14.949Z,20.57
2018-05-29T05:06:43.216Z,20.47
2018-05-29T05:09:12.410Z,20.64
2018-05-29T05:11:40.702Z,20.60
2018-05-29T05:14:09.732Z,20.63
2018-05-29T05:16:38.038Z,20.74
2018-05-29T05:19:06.314Z,20.80
2018-05-29T05:21:34.621Z,20.80
2018-05-29T05:24:02.884Z,20.72
2018-05-29T05:26:31.163Z,20.68
2018-05-29T05:28:59.432Z,20.71
2018-05-29T05:31:27.702Z,20.79
2018-05-29T05:33:55.983Z,20.83
2018-05-29T05:36:24.276Z,20.88
2018-05-29T05:38:52.575Z,20.95
2018-05-29T05:41:20.883Z,20.95
2018-05-29T05:43:49.929Z,21.03
2018-05-29T05:46:18.220Z,21.09
2018-05-29T05:48:46.502Z,21.18
2018-05-29T05:51:14.807Z,21.25
2018-05-29T05:53:43.091Z,21.25
2018-05-29T05:56:11.391Z,21.30
2018-05-29T05:58:39.678Z,21.34
2018-05-29T06:01:09.019Z,21.33
2018-05-29T06:03:37.293Z,21.35
2018-05-29T06:06:05.566Z,21.37
2018-05-29T06:08:34.083Z,21.40
2018-05-29T06:11:02.366Z,21.39
2018-05-29T06:13:30.658Z,21.44
2018-05-29T06:15:58.930Z,21.47
2018-05-29T06:18:27.212Z,21.52
2018-05-29T06:20:55.513Z,21.52
2018-05-29T06:23:23.860Z,21.53
2018-05-29T06:25:52.173Z,21.53
2018-05-29T06:28:20.490Z,21.55
2018-05-29T06:30:48.790Z,21.60
2018-05-29T06:33:17.838Z,21.68
2018-05-29T06:35:46.132Z,21.70
2018-05-29T06:38:14.460Z,21.79
2018-05-29T06:40:42.752Z,21.86
2018-05-29T06:43:11.022Z,21.95
2018-05-29T06:45:39.314Z,21.99
2018-05-29T06:48:07.607Z,22.01
2018-05-29T06:50:35.884Z,22.08
2018-05-29T06:53:04.962Z,22.16
2018-05-29T06:55:33.253Z,22.28
2018-05-29T06:58:01.534Z,22.31
2018-05-29T07:00:29.803Z,22.43
2018-05-29T07:02:58.079Z,22.41
2018-05-29T07:05:27.138Z,22.53
2018-05-29T07:07:55.421Z,22.61
2018-05-29T07:10:23.861Z,22.65
2018-05-29T07:12:52.142Z,22.71
2018-05-29T07:15:21.208Z,22.80
2018-05-29T07:17:49.521Z,22.87
2018-05-29T07:20:18.555Z,22.91
2018-05-29T07:22:47.598Z,22.95
2018-05-29T07:25:15.869Z,23.08
2018-05-29T07:27:44.147Z,23.14
2018-05-29T07:30:12.434Z,23.23
2018-05-29T07:32:40.699Z,23.34
2018-05-29T07:35:08.961Z,23.29
2018-05-29T07:37:37.251Z,23.26
2018-05-29T07:40:05.522Z,23.28
2018-05-29T07:42:33.805Z,23.28
2018-05-29T07:45:02.089Z,23.34
2018-05-29T07:47:30.386Z,23.42
2018-05-29T07:49:59.738Z,23.49
2018-05-29T07:52:28.063Z,23.49
2018-05-29T07:54:56.344Z,23.52
2018-05-29T07:57:24.684Z,23.66
2018-05-29T07:59:52.967Z,23.67
2018-05-29T08:02:21.283Z,23.82
2018-05-29T08:04:50.376Z,23.96
2018-05-29T08:07:18.660Z,24.07
2018-05-29T08:09:46.960Z,24.07
2018-05-29T08:12:15.226Z,24.11
2018-05-29T08:14:43.518Z,23.98
2018-05-29T08:17:11.795Z,23.92
2018-05-29T08:19:40.352Z,23.72
2018-05-29T08:22:08.643Z,23.75
2018-05-29T08:24:36.959Z,23.60
2018-05-29T08:27:05.236Z,23.59
2018-05-29T08:29:33.534Z,23.63
2018-05-29T08:32:01.815Z,23.81
2018-05-29T08:34:30.158Z,24.00
2018-05-29T08:36:59.206Z,24.23
2018-05-29T08:39:27.555Z,24.53
2018-05-29T08:41:55.793Z,24.76
2018-05-29T08:44:24.073Z,24.82
2018-05-29T08:46:52.393Z,24.86
2018-05-29T08:49:21.490Z,24.88
2018-05-29T08:51:49.794Z,24.96
2018-05-29T08:54:18.070Z,24.99
2018-05-29T08:56:46.386Z,25.11
2018-05-29T08:59:14.646Z,25.20
2018-05-29T09:01:42.961Z,25.36
2018-05-29T09:04:12.034Z,25.53
2018-05-29T09:06:40.373Z,25.71
2018-05-29T09:09:09.448Z,25.90
2018-05-29T09:11:37.852Z,26.04
2018-05-29T09:14:06.130Z,26.05
2018-05-29T09:16:34.410Z,26.16
2018-05-29T09:19:02.730Z,26.31
2018-05-29T09:21:31.790Z,26.46
2018-05-29T09:24:00.612Z,26.66
2018-05-29T09:26:28.901Z,26.79
2018-05-29T09:28:57.186Z,26.84
2018-05-29T09:31:25.486Z,26.87
2018-05-29T09:33:53.780Z,27.00
2018-05-29T09:36:22.111Z,26.93
2018-05-29T09:38:50.416Z,26.93
2018-05-29T09:41:18.707Z,26.93
2018-05-29T09:43:47.024Z,27.04
2018-05-29T09:46:15.318Z,26.87
2018-05-29T09:48:43.591Z,26.82
2018-05-29T09:51:11.894Z,26.70
2018-05-29T09:53:40.186Z,26.77
2018-05-29T09:56:08.459Z,26.62
2018-05-29T09:58:36.757Z,26.41
2018-05-29T10:01:05.061Z,26.28
2018-05-29T10:03:34.102Z,26.20
2018-05-29T10:06:02.482Z,26.20
2018-05-29T10:08:30.748Z,26.15
2018-05-29T10:10:59.806Z,26.11
2018-05-29T10:13:28.089Z,26.22
2018-05-29T10:15:56.366Z,26.27
2018-05-29T10:18:24.668Z,26.33
2018-05-29T10:20:52.960Z,26.27
2018-05-29T10:23:21.314Z,26.24
2018-05-29T10:25:49.568Z,26.34
2018-05-29T10:28:18.626Z,26.33
2018-05-29T10:30:46.921Z,26.47
2018-05-29T10:33:15.214Z,26.77
2018-05-29T10:35:43.516Z,26.93
2018-05-29T10:38:11.817Z,27.15
2018-05-29T10:40:40.107Z,27.07
2018-05-29T10:43:08.401Z,27.18
2018-05-29T10:45:36.697Z,27.45
2018-05-29T10:48:04.976Z,27.49
2018-05-29T10:50:33.280Z,27.52
2018-05-29T10:53:02.330Z,27.35
2018-05-29T10:55:30.614Z,27.37
2018-05-29T10:57:58.889Z,27.41
2018-05-29T11:00:27.163Z,27.50
2018-05-29T11:02:56.199Z,27.60
2018-05-29T11:05:24.542Z,27.67
2018-05-29T11:07:52.813Z,27.96
2018-05-29T11:10:21.095Z,27.93
2018-05-29T11:12:49.386Z,28.06
2018-05-29T11:15:17.674Z,27.97
2018-05-29T11:17:45.951Z,28.19
2018-05-29T11:20:14.252Z,28.37
2018-05-29T11:22:42.541Z,28.61
2018-05-29T11:25:10.832Z,28.50
2018-05-29T11:27:39.125Z,28.59
2018-05-29T11:30:07.411Z,28.60
2018-05-29T11:32:35.702Z,28.61
2018-05-29T11:35:03.983Z,28.50
2018-05-29T11:37:32.271Z,28.31
2018-05-29T11:40:00.917Z,28.28
2018-05-29T11:42:29.215Z,28.50
2018-05-29T11:44:57.491Z,28.62
2018-05-29T11:47:25.793Z,28.83
2018-05-29T11:49:54.074Z,28.69
2018-05-29T11:52:22.384Z,28.55
2018-05-29T11:54:50.748Z,28.54
2018-05-29T11:57:19.902Z,28.63
2018-05-29T11:59:48.267Z,28.77
2018-05-29T12:02:16.540Z,28.61
2018-05-29T12:04:44.824Z,28.31
2018-05-29T12:07:13.100Z,28.23
2018-05-29T12:09:41.433Z,28.04
2018-05-29T12:12:34.347Z,27.81
2018-05-29T12:15:03.402Z,27.60
2018-05-29T12:17:31.730Z,27.56
2018-05-29T12:20:00.789Z,27.45
2018-05-29T12:22:29.059Z,27.33
2018-05-29T12:24:57.354Z,27.21
2018-05-29T12:27:25.622Z,27.20
2018-05-29T12:29:53.901Z,27.32
2018-05-29T12:32:22.993Z,27.17
2018-05-29T12:34:52.080Z,27.05
2018-05-29T12:37:20.424Z,27.01
2018-05-29T12:39:48.737Z,27.10
2018-05-29T12:42:17.037Z,27.12
2018-05-29T12:44:46.080Z,27.09
2018-05-29T12:47:15.217Z,27.14
2018-05-29T12:49:43.493Z,27.27
2018-05-29T12:52:11.783Z,27.34
2018-05-29T12:54:40.048Z,27.20
2018-05-29T12:57:09.371Z,27.25
2018-05-29T12:59:37.658Z,27.31
2018-05-29T13:02:06.704Z,27.34
2018-05-29T13:04:34.988Z,27.39
2018-05-29T13:07:03.312Z,27.40
2018-05-29T13:09:31.616Z,27.59
2018-05-29T13:12:00.174Z,27.74
2018-05-29T13:14:28.468Z,27.90
2018-05-29T13:16:56.877Z,27.95
2018-05-29T13:19:25.184Z,27.96
2018-05-29T13:21:54.243Z,28.03
2018-05-29T13:24:22.565Z,28.28
2018-05-29T13:26:50.882Z,28.41
2018-05-29T13:29:19.225Z,28.49
2018-05-29T13:31:47.500Z,28.36
2018-05-29T13:34:15.821Z,28.29
2018-05-29T13:36:44.109Z,28.50
2018-05-29T13:39:12.763Z,28.37
2018-05-29T13:41:41.037Z,28.26
2018-05-29T13:44:09.339Z,28.26
2018-05-29T13:46:37.643Z,28.24
2018-05-29T13:49:05.918Z,27.95
2018-05-29T13:51:34.198Z,27.79
2018-05-29T13:54:02.502Z,27.76
2018-05-29T13:56:31.009Z,27.73
2018-05-29T13:58:59.274Z,27.70
2018-05-29T14:01:27.570Z,27.70
2018-05-29T14:03:55.869Z,27.64
2018-05-29T14:06:25.386Z,27.67
2018-05-29T14:08:53.705Z,27.84
2018-05-29T14:11:21.985Z,27.95
2018-05-29T14:13:50.366Z,27.92
2018-05-29T14:16:18.643Z,27.92
2018-05-29T14:18:46.925Z,27.92
2018-05-29T14:21:15.236Z,27.95
2018-05-29T14:23:43.534Z,28.07
2018-05-29T14:26:11.831Z,28.12
2018-05-29T14:28:40.881Z,28.05
2018-05-29T14:31:09.161Z,28.03
2018-05-29T14:33:37.445Z,28.03
2018-05-29T14:36:05.722Z,28.06
2018-05-29T14:38:34.024Z,28.25
2018-05-29T14:41:02.322Z,28.21
2018-05-29T14:43:30.619Z,28.12
2018-05-29T14:45:58.905Z,28.15
2018-05-29T14:48:27.179Z,28.25
2018-05-29T14:50:55.584Z,28.26
2018-05-29T14:53:23.923Z,28.23
2018-05-29T14:55:52.231Z,28.26
2018-05-29T14:58:20.594Z,28.33
2018-05-29T15:00:49.719Z,28.19
2018-05-29T15:03:18.014Z,28.00
2018-05-29T15:05:46.447Z,27.97
2018-05-29T15:08:14.741Z,27.76
2018-05-29T15:10:43.032Z,27.69
2018-05-29T15:13:11.339Z,27.64
2018-05-29T15:15:39.613Z,27.49
2018-05-29T15:18:07.888Z,27.61
2018-05-29T15:20:36.226Z,27.45
2018-05-29T15:23:05.536Z,27.39
2018-05-29T15:25:34.566Z,27.38
2018-05-29T15:28:03.083Z,27.50
2018-05-29T15:30:31.383Z,27.37
2018-05-29T15:32:59.750Z,27.24
2018-05-29T15:35:28.049Z,27.12
2018-05-29T15:37:56.357Z,27.03
2018-05-29T15:40:24.690Z,27.11
2018-05-29T15:42:52.970Z,27.11
2018-05-29T15:45:22.030Z,27.00
2018-05-29T15:47:50.315Z,26.93
2018-05-29T15:50:18.651Z,26.81
2018-05-29T15:52:47.713Z,26.72
2018-05-29T15:55:16.014Z,26.84
2018-05-29T15:57:44.306Z,26.73
2018-05-29T16:00:12.609Z,26.62
2018-05-29T16:02:41.660Z,26.60
2018-05-29T16:05:09.960Z,26.56
2018-05-29T16:07:38.231Z,26.54
2018-05-29T16:10:06.531Z,26.50
2018-05-29T16:12:34.807Z,26.48
2018-05-29T16:15:03.114Z,26.60
2018-05-29T16:17:31.392Z,26.63
2018-05-29T16:19:59.694Z,26.54
2018-05-29T16:22:27.972Z,26.70
2018-05-29T16:24:56.274Z,26.78
2018-05-29T16:27:24.569Z,26.65
2018-05-29T16:29:52.987Z,26.56
2018-05-29T16:32:22.038Z,26.55
2018-05-29T16:34:50.429Z,26.65
2018-05-29T16:37:18.743Z,26.59
2018-05-29T16:39:47.040Z,26.61
2018-05-29T16:42:15.486Z,26.68
2018-05-29T16:44:43.771Z,26.62
2018-05-29T16:47:12.108Z,26.62
2018-05-29T16:49:40.403Z,26.56
2018-05-29T16:52:08.693Z,26.53
2018-05-29T16:54:36.978Z,26.40
2018-05-29T16:57:05.979Z,26.42
2018-05-29T16:59:34.297Z,26.36
2018-05-29T17:02:02.823Z,26.39
2018-05-29T17:04:31.114Z,26.31
2018-05-29T17:06:59.395Z,26.36
2018-05-29T17:09:27.699Z,26.26
2018-05-29T17:11:56.002Z,26.20
2018-05-29T17:14:24.304Z,26.24
2018-05-29T17:16:52.626Z,26.21
2018-05-29T17:19:21.022Z,26.15
2018-05-29T17:21:49.370Z,26.17
2018-05-29T17:24:17.602Z,26.20
2018-05-29T17:26:45.880Z,26.13
2018-05-29T17:29:14.166Z,26.11
2018-05-29T17:31:42.487Z,26.17
2018-05-29T17:34:11.081Z,26.18
2018-05-29T17:36:39.362Z,26.08
2018-05-29T17:39:07.659Z,26.01
2018-05-29T17:41:35.942Z,25.97
2018-05-29T17:44:04.284Z,25.90
2018-05-29T17:46:32.546Z,25.86
2018-05-29T17:49:00.866Z,25.84
2018-05-29T17:51:29.507Z,25.82
2018-05-29T17:53:57.805Z,25.82
2018-05-29T17:56:26.146Z,25.78
2018-05-29T17:58:54.386Z,25.95
2018-05-29T18:01:22.656Z,25.81
2018-05-29T18:03:50.963Z,25.82
2018-05-29T18:06:19.232Z,25.68
2018-05-29T18:08:47.544Z,25.58
2018-05-29T18:11:15.830Z,25.51
2018-05-29T18:13:44.139Z,25.48
2018-05-29T18:16:12.538Z,25.39
2018-05-29T18:18:40.824Z,25.37
2018-05-29T18:21:09.100Z,25.32
2018-05-29T18:23:37.403Z,25.33
2018-05-29T18:26:05.732Z,25.32
2018-05-29T18:28:34.002Z,25.26
2018-05-29T18:31:03.413Z,25.20
2018-05-29T18:33:31.643Z,25.15
2018-05-29T18:35:59.978Z,25.14
2018-05-29T18:38:29.099Z,25.13
2018-05-29T18:40:57.325Z,25.08
2018-05-29T18:43:25.625Z,25.13
2018-05-29T18:45:54.050Z,25.13
2018-05-29T18:48:22.323Z,25.07
2018-05-29T18:50:50.603Z,25.02
2018-05-29T18:53:18.881Z,25.01
2018-05-29T18:55:47.163Z,25.00
2018-05-29T18:58:15.439Z,24.97
2018-05-29T19:00:43.811Z,24.98
2018-05-29T19:03:12.475Z,24.99
2018-05-29T19:05:40.760Z,24.93
2018-05-29T19:08:09.967Z,24.89
2018-05-29T19:10:38.262Z,24.84
2018-05-29T19:13:06.538Z,24.90
2018-05-29T19:15:34.848Z,24.89
2018-05-29T19:18:03.176Z,24.95
2018-05-29T19:20:31.523Z,24.94
2018-05-29T19:22:59.874Z,24.87
2018-05-29T19:25:28.134Z,24.81
2018-05-29T19:27:56.458Z,24.63
2018-05-29T19:30:24.863Z,24.50
2018-05-29T19:32:53.931Z,24.33
2018-05-29T19:35:22.250Z,24.23
2018-05-29T19:37:50.708Z,24.23
2018-05-29T19:40:18.979Z,24.22
2018-05-29T19:42:48.053Z,24.06
2018-05-29T19:45:16.333Z,24.01
2018-05-29T19:47:44.609Z,23.99
2018-05-29T19:50:12.905Z,23.99
2018-05-29T19:52:41.177Z,23.97
2018-05-29T19:55:09.478Z,23.98
2018-05-29T19:57:37.747Z,23.95
2018-05-29T20:00:06.018Z,23.82
2018-05-29T20:02:34.460Z,23.75
2018-05-29T20:05:02.734Z,23.73
2018-05-29T20:07:31.015Z,23.71
2018-05-29T20:09:59.379Z,23.64
2018-05-29T20:12:28.495Z,23.60
2018-05-29T20:14:56.786Z,23.61
2018-05-29T20:17:33.039Z,23.53
2018-05-29T20:20:01.372Z,23.53
2018-05-29T20:22:30.382Z,23.53
2018-05-29T20:24:58.848Z,23.45
2018-05-29T20:27:27.144Z,23.42
2018-05-29T20:29:55.436Z,23.40
2018-05-29T20:32:23.728Z,23.30
2018-05-29T20:34:52.016Z,23.25
2018-05-29T20:37:20.335Z,23.28
2018-05-29T20:39:49.402Z,23.26
2018-05-29T20:42:17.810Z,23.27
2018-05-29T20:44:46.157Z,23.21
2018-05-29T20:47:14.424Z,23.20
2018-05-29T20:49:43.680Z,23.20
2018-05-29T20:52:11.945Z,23.23
2018-05-29T20:54:40.263Z,23.20
2018-05-29T20:57:08.570Z,23.18
2018-05-29T20:59:36.840Z,23.20
2018-05-29T21:02:05.126Z,23.20
2018-05-29T21:04:33.428Z,23.14
2018-05-29T21:07:02.634Z,23.07
2018-05-29T21:09:30.911Z,23.04
2018-05-29T21:11:59.279Z,23.05
2018-05-29T21:14:27.562Z,23.04
2018-05-29T21:16:55.866Z,23.05
2018-05-29T21:19:24.325Z,23.03
2018-05-29T21:21:53.454Z,22.99
2018-05-29T21:24:21.762Z,22.88
2018-05-29T21:26:50.118Z,22.86
2018-05-29T21:29:19.362Z,22.75
2018-05-29T21:31:47.629Z,22.77
2018-05-29T21:34:15.922Z,22.74
2018-05-29T21:36:44.336Z,22.66
2018-05-29T21:39:12.630Z,22.62
2018-05-29T21:41:40.914Z,22.65
2018-05-29T21:44:09.378Z,22.61
2018-05-29T21:46:37.665Z,22.58
2018-05-29T21:49:05.937Z,22.50
2018-05-29T21:51:35.145Z,22.45
2018-05-29T21:54:04.179Z,22.31
2018-05-29T21:56:32.462Z,22.27
2018-05-29T21:59:00.807Z,22.28
2018-05-29T22:01:29.886Z,22.14
2018-05-29T22:04:03.968Z,21.96
2018-05-29T22:06:32.250Z,21.93
2018-05-29T22:09:01.288Z,21.94
2018-05-29T22:11:29.580Z,21.87
2018-05-29T22:13:57.867Z,21.87
2018-05-29T22:16:26.157Z,21.87
2018-05-29T22:18:54.462Z,21.84
2018-05-29T22:21:22.760Z,21.73
2018-05-29T22:23:51.054Z,21.67
2018-05-29T22:26:19.342Z,21.62
2018-05-29T22:28:47.639Z,21.74
2018-05-29T22:31:16.037Z,21.64
2018-05-29T22:33:44.321Z,21.53
2018-05-29T22:36:12.604Z,21.59
2018-05-29T22:38:41.045Z,21.59
2018-05-29T22:41:09.332Z,21.52
2018-05-29T22:43:37.634Z,21.41
2018-05-29T22:46:05.970Z,21.38
2018-05-29T22:51:02.634Z,21.22
2018-05-29T22:53:30.935Z,21.24
2018-05-29T22:55:59.234Z,21.31
2018-05-29T22:58:28.271Z,21.29
2018-05-29T23:00:56.575Z,21.15
2018-05-29T23:03:24.866Z,21.17
2018-05-29T23:05:53.152Z,21.17
2018-05-29T23:08:21.436Z,21.12
2018-05-29T23:10:49.731Z,21.15
2018-05-29T23:13:18.029Z,21.13
2018-05-29T23:15:47.078Z,21.18
2018-05-29T23:18:16.123Z,21.09
2018-05-29T23:20:44.430Z,21.02
2018-05-29T23:23:12.728Z,20.97
2018-05-29T23:25:41.021Z,20.90
2018-05-29T23:28:09.306Z,20.99
2018-05-29T23:30:37.573Z,20.95
2018-05-29T23:33:05.857Z,20.76
2018-05-29T23:35:34.137Z,20.77
2018-05-29T23:38:02.435Z,20.81
2018-05-29T23:40:30.711Z,20.83
2018-05-29T23:42:59.006Z,20.57
2018-05-29T23:45:27.304Z,20.52
2018-05-29T23:47:55.631Z,20.58
2018-05-29T23:50:23.904Z,20.63
2018-05-29T23:52:52.211Z,20.62
2018-05-29T23:55:21.262Z,20.51
2018-05-29T23:57:49.549Z,20.43
